sensor_id;sensor_type;location;lat;lon;timestamp;temperature;humidity
16867;DHT22;8550;52.596;13.320;2023-06-19T00:01:50;16.80;99.90
16867;DHT22;8550;52.596;13.320;2023-06-19T00:06:52;16.70;99.90
16867;DHT22;8550;52.596;13.320;2023-06-19T00:11:56;16.80;99.90
16867;DHT22;8550;52.596;13.320;2023-06-19T00:16:59;16.80;99.90
16867;DHT22;8550;52.596;13.320;2023-06-19T00:22:02;16.80;99.90
16867;DHT22;8550;52.596;13.320;2023-06-19T00:27:06;16.70;99.90
16867;DHT22;8550;52.596;13.320;2023-06-19T00:32:09;16.70;99.90
16867;DHT22;8550;52.596;13.320;2023-06-19T00:37:12;16.80;99.90
16867;DHT22;8550;52.596;13.320;2023-06-19T00:42:15;17.00;99.90
16867;DHT22;8550;52.596;13.320;2023-06-19T00:47:18;17.00;99.90
16867;DHT22;8550;52.596;13.320;2023-06-19T00:52:20;17.10;99.90
16867;DHT22;8550;52.596;13.320;2023-06-19T00:57:24;17.10;99.90
16867;DHT22;8550;52.596;13.320;2023-06-19T01:02:27;17.20;99.90
16867;DHT22;8550;52.596;13.320;2023-06-19T01:07:33;17.10;99.90
16867;DHT22;8550;52.596;13.320;2023-06-19T01:12:46;17.20;99.90
16867;DHT22;8550;52.596;13.320;2023-06-19T01:17:54;17.10;99.90
16867;DHT22;8550;52.596;13.320;2023-06-19T01:23:06;17.20;99.90
16867;DHT22;8550;52.596;13.320;2023-06-19T01:28:10;17.20;99.90
16867;DHT22;8550;52.596;13.320;2023-06-19T01:33:17;17.20;99.90
16867;DHT22;8550;52.596;13.320;2023-06-19T01:38:24;17.30;99.90
16867;DHT22;8550;52.596;13.320;2023-06-19T01:43:27;17.30;99.90
16867;DHT22;8550;52.596;13.320;2023-06-19T01:48:30;17.40;99.90
16867;DHT22;8550;52.596;13.320;2023-06-19T01:53:34;17.40;99.90
16867;DHT22;8550;52.596;13.320;2023-06-19T01:58:36;17.40;99.90
16867;DHT22;8550;52.596;13.320;2023-06-19T02:03:38;17.40;99.90
16867;DHT22;8550;52.596;13.320;2023-06-19T02:08:41;17.50;99.90
16867;DHT22;8550;52.596;13.320;2023-06-19T02:13:43;17.40;99.90
16867;DHT22;8550;52.596;13.320;2023-06-19T02:18:45;17.40;99.90
16867;DHT22;8550;52.596;13.320;2023-06-19T02:23:48;17.40;99.90
16867;DHT22;8550;52.596;13.320;2023-06-19T02:28:50;17.40;99.90
16867;DHT22;8550;52.596;13.320;2023-06-19T02:33:52;17.50;99.90
16867;DHT22;8550;52.596;13.320;2023-06-19T02:38:55;17.50;99.90
16867;DHT22;8550;52.596;13.320;2023-06-19T02:43:57;17.50;99.90
16867;DHT22;8550;52.596;13.320;2023-06-19T02:48:59;17.50;99.90
16867;DHT22;8550;52.596;13.320;2023-06-19T02:54:03;17.60;99.90
16867;DHT22;8550;52.596;13.320;2023-06-19T02:59:07;17.50;99.90
16867;DHT22;8550;52.596;13.320;2023-06-19T03:04:09;17.60;99.90
16867;DHT22;8550;52.596;13.320;2023-06-19T03:09:12;17.60;99.90
16867;DHT22;8550;52.596;13.320;2023-06-19T03:14:14;17.60;99.90
16867;DHT22;8550;52.596;13.320;2023-06-19T03:19:16;17.70;99.90
16867;DHT22;8550;52.596;13.320;2023-06-19T03:24:19;17.80;99.90
16867;DHT22;8550;52.596;13.320;2023-06-19T03:29:21;17.90;99.90
16867;DHT22;8550;52.596;13.320;2023-06-19T03:34:23;18.00;99.90
16867;DHT22;8550;52.596;13.320;2023-06-19T03:39:26;18.20;99.90
16867;DHT22;8550;52.596;13.320;2023-06-19T03:44:28;18.40;99.90
16867;DHT22;8550;52.596;13.320;2023-06-19T03:49:30;18.40;99.90
16867;DHT22;8550;52.596;13.320;2023-06-19T03:54:33;18.50;99.90
16867;DHT22;8550;52.596;13.320;2023-06-19T03:59:35;18.70;99.90
16867;DHT22;8550;52.596;13.320;2023-06-19T04:04:37;18.80;99.90
16867;DHT22;8550;52.596;13.320;2023-06-19T04:09:40;18.90;99.90
16867;DHT22;8550;52.596;13.320;2023-06-19T04:14:42;19.00;99.90
16867;DHT22;8550;52.596;13.320;2023-06-19T04:19:44;19.00;99.90
16867;DHT22;8550;52.596;13.320;2023-06-19T04:24:48;19.10;99.90
16867;DHT22;8550;52.596;13.320;2023-06-19T04:29:49;19.20;99.90
16867;DHT22;8550;52.596;13.320;2023-06-19T04:34:53;19.20;99.90
16867;DHT22;8550;52.596;13.320;2023-06-19T04:39:56;19.40;99.90
16867;DHT22;8550;52.596;13.320;2023-06-19T04:44:58;19.50;99.90
16867;DHT22;8550;52.596;13.320;2023-06-19T04:50:00;19.60;99.90
16867;DHT22;8550;52.596;13.320;2023-06-19T04:55:05;19.70;99.90
16867;DHT22;8550;52.596;13.320;2023-06-19T05:00:10;19.70;99.90
16867;DHT22;8550;52.596;13.320;2023-06-19T05:05:13;19.60;99.90
16867;DHT22;8550;52.596;13.320;2023-06-19T05:10:16;19.60;99.90
16867;DHT22;8550;52.596;13.320;2023-06-19T05:15:19;19.60;99.90
16867;DHT22;8550;52.596;13.320;2023-06-19T05:20:21;19.60;99.90
16867;DHT22;8550;52.596;13.320;2023-06-19T05:25:25;19.80;99.90
16867;DHT22;8550;52.596;13.320;2023-06-19T05:30:28;19.90;99.90
16867;DHT22;8550;52.596;13.320;2023-06-19T05:35:30;20.00;99.90
16867;DHT22;8550;52.596;13.320;2023-06-19T05:40:33;20.00;99.90
16867;DHT22;8550;52.596;13.320;2023-06-19T05:45:35;20.00;99.90
16867;DHT22;8550;52.596;13.320;2023-06-19T05:50:37;20.10;99.90
16867;DHT22;8550;52.596;13.320;2023-06-19T05:55:41;20.20;99.90
16867;DHT22;8550;52.596;13.320;2023-06-19T06:00:43;20.20;99.90
16867;DHT22;8550;52.596;13.320;2023-06-19T06:05:44;20.30;99.90
16867;DHT22;8550;52.596;13.320;2023-06-19T06:10:50;20.40;99.90
16867;DHT22;8550;52.596;13.320;2023-06-19T06:15:52;20.40;99.90
16867;DHT22;8550;52.596;13.320;2023-06-19T06:20:54;20.50;99.90
16867;DHT22;8550;52.596;13.320;2023-06-19T06:25:57;20.60;99.90
16867;DHT22;8550;52.596;13.320;2023-06-19T06:31:02;20.70;99.90
16867;DHT22;8550;52.596;13.320;2023-06-19T06:36:04;20.80;99.90
16867;DHT22;8550;52.596;13.320;2023-06-19T06:41:08;21.00;99.90
16867;DHT22;8550;52.596;13.320;2023-06-19T06:46:10;21.20;99.90
16867;DHT22;8550;52.596;13.320;2023-06-19T06:51:12;21.50;99.90
16867;DHT22;8550;52.596;13.320;2023-06-19T06:56:15;21.70;99.90
16867;DHT22;8550;52.596;13.320;2023-06-19T07:01:17;21.80;99.90
16867;DHT22;8550;52.596;13.320;2023-06-19T07:06:19;22.10;99.90
16867;DHT22;8550;52.596;13.320;2023-06-19T07:11:23;22.20;99.90
16867;DHT22;8550;52.596;13.320;2023-06-19T07:16:25;22.40;99.90
16867;DHT22;8550;52.596;13.320;2023-06-19T07:21:28;22.50;99.90
16867;DHT22;8550;52.596;13.320;2023-06-19T07:26:31;22.70;99.90
16867;DHT22;8550;52.596;13.320;2023-06-19T07:31:33;23.00;99.90
16867;DHT22;8550;52.596;13.320;2023-06-19T07:36:35;23.20;99.90
16867;DHT22;8550;52.596;13.320;2023-06-19T07:41:38;23.40;99.90
16867;DHT22;8550;52.596;13.320;2023-06-19T07:46:40;23.70;99.90
16867;DHT22;8550;52.596;13.320;2023-06-19T07:51:42;23.80;99.90
16867;DHT22;8550;52.596;13.320;2023-06-19T07:56:46;23.90;99.90
16867;DHT22;8550;52.596;13.320;2023-06-19T08:01:48;23.70;99.90
16867;DHT22;8550;52.596;13.320;2023-06-19T08:06:50;24.00;99.90
16867;DHT22;8550;52.596;13.320;2023-06-19T08:11:53;24.10;99.90
16867;DHT22;8550;52.596;13.320;2023-06-19T08:16:55;24.00;99.90
16867;DHT22;8550;52.596;13.320;2023-06-19T08:21:57;24.00;99.90
16867;DHT22;8550;52.596;13.320;2023-06-19T08:27:00;24.00;99.90
16867;DHT22;8550;52.596;13.320;2023-06-19T08:32:03;23.90;99.90
16867;DHT22;8550;52.596;13.320;2023-06-19T08:37:05;23.90;99.90
16867;DHT22;8550;52.596;13.320;2023-06-19T08:42:09;24.00;99.90
16867;DHT22;8550;52.596;13.320;2023-06-19T08:47:11;23.90;99.90
16867;DHT22;8550;52.596;13.320;2023-06-19T08:52:13;23.90;99.90
16867;DHT22;8550;52.596;13.320;2023-06-19T08:57:16;23.80;99.90
16867;DHT22;8550;52.596;13.320;2023-06-19T09:02:18;23.70;99.90
16867;DHT22;8550;52.596;13.320;2023-06-19T09:07:20;23.70;99.90
16867;DHT22;8550;52.596;13.320;2023-06-19T09:12:24;23.80;99.90
16867;DHT22;8550;52.596;13.320;2023-06-19T09:17:26;23.80;99.90
16867;DHT22;8550;52.596;13.320;2023-06-19T09:22:28;24.10;99.90
16867;DHT22;8550;52.596;13.320;2023-06-19T09:27:33;24.40;99.90
16867;DHT22;8550;52.596;13.320;2023-06-19T09:32:35;24.60;99.90
16867;DHT22;8550;52.596;13.320;2023-06-19T09:37:38;24.70;99.90
16867;DHT22;8550;52.596;13.320;2023-06-19T09:42:43;24.50;99.90
16867;DHT22;8550;52.596;13.320;2023-06-19T09:47:46;24.70;99.90
16867;DHT22;8550;52.596;13.320;2023-06-19T09:52:49;24.90;99.90
16867;DHT22;8550;52.596;13.320;2023-06-19T09:57:53;25.10;99.90
16867;DHT22;8550;52.596;13.320;2023-06-19T10:02:55;25.20;99.90
16867;DHT22;8550;52.596;13.320;2023-06-19T10:07:58;25.20;99.90
16867;DHT22;8550;52.596;13.320;2023-06-19T10:13:13;25.40;99.90
16867;DHT22;8550;52.596;13.320;2023-06-19T10:18:17;25.50;99.90
16867;DHT22;8550;52.596;13.320;2023-06-19T10:23:21;25.50;99.90
16867;DHT22;8550;52.596;13.320;2023-06-19T10:28:27;25.80;99.90
16867;DHT22;8550;52.596;13.320;2023-06-19T10:33:31;26.00;99.90
16867;DHT22;8550;52.596;13.320;2023-06-19T10:38:33;26.40;99.90
16867;DHT22;8550;52.596;13.320;2023-06-19T10:43:37;27.20;99.90
16867;DHT22;8550;52.596;13.320;2023-06-19T10:48:38;27.20;99.00
16867;DHT22;8550;52.596;13.320;2023-06-19T10:53:42;27.50;98.80
16867;DHT22;8550;52.596;13.320;2023-06-19T10:58:45;27.20;97.90
16867;DHT22;8550;52.596;13.320;2023-06-19T11:03:48;27.00;98.00
16867;DHT22;8550;52.596;13.320;2023-06-19T11:08:52;27.00;98.20
16867;DHT22;8550;52.596;13.320;2023-06-19T11:13:55;26.80;98.80
16867;DHT22;8550;52.596;13.320;2023-06-19T11:18:57;27.20;97.50
16867;DHT22;8550;52.596;13.320;2023-06-19T11:23:59;28.10;96.00
16867;DHT22;8550;52.596;13.320;2023-06-19T11:29:13;28.80;94.30
16867;DHT22;8550;52.596;13.320;2023-06-19T11:34:16;29.90;92.60
16867;DHT22;8550;52.596;13.320;2023-06-19T11:39:18;31.40;89.20
16867;DHT22;8550;52.596;13.320;2023-06-19T11:44:21;31.60;83.20
16867;DHT22;8550;52.596;13.320;2023-06-19T11:49:23;31.70;81.60
16867;DHT22;8550;52.596;13.320;2023-06-19T11:54:25;32.70;75.70
16867;DHT22;8550;52.596;13.320;2023-06-19T11:59:29;32.60;73.70
16867;DHT22;8550;52.596;13.320;2023-06-19T12:04:31;32.70;75.40
16867;DHT22;8550;52.596;13.320;2023-06-19T12:09:33;33.30;68.10
16867;DHT22;8550;52.596;13.320;2023-06-19T12:14:37;33.50;65.20
16867;DHT22;8550;52.596;13.320;2023-06-19T12:19:40;31.50;68.20
16867;DHT22;8550;52.596;13.320;2023-06-19T12:24:42;30.70;72.20
16867;DHT22;8550;52.596;13.320;2023-06-19T12:29:45;32.30;71.30
16867;DHT22;8550;52.596;13.320;2023-06-19T12:34:47;33.80;67.70
16867;DHT22;8550;52.596;13.320;2023-06-19T12:39:50;34.30;62.70
16867;DHT22;8550;52.596;13.320;2023-06-19T12:44:54;34.80;62.00
16867;DHT22;8550;52.596;13.320;2023-06-19T12:49:56;35.50;57.40
16867;DHT22;8550;52.596;13.320;2023-06-19T12:54:57;36.10;56.20
16867;DHT22;8550;52.596;13.320;2023-06-19T13:00:03;36.10;53.50
16867;DHT22;8550;52.596;13.320;2023-06-19T13:05:07;34.30;55.50
16867;DHT22;8550;52.596;13.320;2023-06-19T13:10:09;33.00;53.80
16867;DHT22;8550;52.596;13.320;2023-06-19T13:15:13;34.40;55.40
16867;DHT22;8550;52.596;13.320;2023-06-19T13:20:15;34.50;52.90
16867;DHT22;8550;52.596;13.320;2023-06-19T13:25:17;32.90;54.30
16867;DHT22;8550;52.596;13.320;2023-06-19T13:30:20;32.00;58.30
16867;DHT22;8550;52.596;13.320;2023-06-19T13:35:22;33.30;56.90
16867;DHT22;8550;52.596;13.320;2023-06-19T13:40:24;33.70;55.80
16867;DHT22;8550;52.596;13.320;2023-06-19T13:45:27;34.20;54.50
16867;DHT22;8550;52.596;13.320;2023-06-19T13:50:29;34.10;53.80
16867;DHT22;8550;52.596;13.320;2023-06-19T13:55:32;34.60;55.60
16867;DHT22;8550;52.596;13.320;2023-06-19T14:00:35;35.20;52.50
16867;DHT22;8550;52.596;13.320;2023-06-19T14:05:37;36.50;50.70
16867;DHT22;8550;52.596;13.320;2023-06-19T14:10:39;36.40;49.80
16867;DHT22;8550;52.596;13.320;2023-06-19T14:15:43;35.80;49.80
16867;DHT22;8550;52.596;13.320;2023-06-19T14:20:45;35.70;50.60
16867;DHT22;8550;52.596;13.320;2023-06-19T14:25:47;35.90;51.50
16867;DHT22;8550;52.596;13.320;2023-06-19T14:30:50;35.90;50.30
16867;DHT22;8550;52.596;13.320;2023-06-19T14:35:52;35.30;52.40
16867;DHT22;8550;52.596;13.320;2023-06-19T14:40:54;35.30;51.80
16867;DHT22;8550;52.596;13.320;2023-06-19T14:45:59;35.10;51.80
16867;DHT22;8550;52.596;13.320;2023-06-19T14:51:01;35.60;52.00
16867;DHT22;8550;52.596;13.320;2023-06-19T14:56:05;36.90;48.60
16867;DHT22;8550;52.596;13.320;2023-06-19T15:01:09;37.60;46.70
16867;DHT22;8550;52.596;13.320;2023-06-19T15:06:11;36.20;48.70
16867;DHT22;8550;52.596;13.320;2023-06-19T15:11:13;35.20;51.10
16867;DHT22;8550;52.596;13.320;2023-06-19T15:16:16;34.10;52.60
16867;DHT22;8550;52.596;13.320;2023-06-19T15:21:20;32.90;53.70
16867;DHT22;8550;52.596;13.320;2023-06-19T15:26:22;32.30;54.10
16867;DHT22;8550;52.596;13.320;2023-06-19T15:31:26;32.00;55.60
16867;DHT22;8550;52.596;13.320;2023-06-19T15:36:28;31.70;56.40
16867;DHT22;8550;52.596;13.320;2023-06-19T15:41:29;31.30;57.90
16867;DHT22;8550;52.596;13.320;2023-06-19T15:46:33;30.70;58.00
16867;DHT22;8550;52.596;13.320;2023-06-19T15:51:35;30.40;59.00
16867;DHT22;8550;52.596;13.320;2023-06-19T15:56:38;30.90;60.20
16867;DHT22;8550;52.596;13.320;2023-06-19T16:01:42;31.20;57.90
16867;DHT22;8550;52.596;13.320;2023-06-19T16:06:43;31.70;60.20
16867;DHT22;8550;52.596;13.320;2023-06-19T16:11:46;31.60;59.40
16867;DHT22;8550;52.596;13.320;2023-06-19T16:16:51;31.60;59.40
16867;DHT22;8550;52.596;13.320;2023-06-19T16:21:54;31.40;58.90
16867;DHT22;8550;52.596;13.320;2023-06-19T16:26:56;31.20;58.10
16867;DHT22;8550;52.596;13.320;2023-06-19T16:31:59;31.00;59.60
16867;DHT22;8550;52.596;13.320;2023-06-19T16:37:02;31.20;59.60
16867;DHT22;8550;52.596;13.320;2023-06-19T16:42:04;31.00;61.80
16867;DHT22;8550;52.596;13.320;2023-06-19T16:47:08;31.10;61.20
16867;DHT22;8550;52.596;13.320;2023-06-19T16:52:10;31.00;61.80
16867;DHT22;8550;52.596;13.320;2023-06-19T16:57:12;30.80;62.00
16867;DHT22;8550;52.596;13.320;2023-06-19T17:02:15;30.20;62.20
16867;DHT22;8550;52.596;13.320;2023-06-19T17:07:17;30.00;63.30
16867;DHT22;8550;52.596;13.320;2023-06-19T17:12:19;29.50;63.70
16867;DHT22;8550;52.596;13.320;2023-06-19T17:17:22;29.50;64.60
16867;DHT22;8550;52.596;13.320;2023-06-19T17:22:25;29.40;64.70
16867;DHT22;8550;52.596;13.320;2023-06-19T17:27:27;29.50;65.90
16867;DHT22;8550;52.596;13.320;2023-06-19T17:32:30;29.20;67.50
16867;DHT22;8550;52.596;13.320;2023-06-19T17:37:34;29.10;67.50
16867;DHT22;8550;52.596;13.320;2023-06-19T17:42:36;28.90;70.10
16867;DHT22;8550;52.596;13.320;2023-06-19T17:47:40;28.70;70.10
16867;DHT22;8550;52.596;13.320;2023-06-19T17:52:42;28.60;70.30
16867;DHT22;8550;52.596;13.320;2023-06-19T17:57:44;28.50;70.30
16867;DHT22;8550;52.596;13.320;2023-06-19T18:02:47;28.40;71.70
16867;DHT22;8550;52.596;13.320;2023-06-19T18:07:49;28.20;71.70
16867;DHT22;8550;52.596;13.320;2023-06-19T18:12:51;28.20;71.90
16867;DHT22;8550;52.596;13.320;2023-06-19T18:17:54;28.20;73.80
16867;DHT22;8550;52.596;13.320;2023-06-19T18:22:56;28.10;73.00
16867;DHT22;8550;52.596;13.320;2023-06-19T18:27:58;28.20;73.70
16867;DHT22;8550;52.596;13.320;2023-06-19T18:33:02;28.50;72.70
16867;DHT22;8550;52.596;13.320;2023-06-19T18:38:04;28.50;71.70
16867;DHT22;8550;52.596;13.320;2023-06-19T18:43:06;28.20;73.00
16867;DHT22;8550;52.596;13.320;2023-06-19T18:48:09;27.80;74.10
16867;DHT22;8550;52.596;13.320;2023-06-19T18:53:11;27.70;74.50
16867;DHT22;8550;52.596;13.320;2023-06-19T18:58:13;27.40;75.50
16867;DHT22;8550;52.596;13.320;2023-06-19T19:03:17;27.20;76.40
16867;DHT22;8550;52.596;13.320;2023-06-19T19:08:19;26.90;78.30
16867;DHT22;8550;52.596;13.320;2023-06-19T19:13:21;26.70;79.10
16867;DHT22;8550;52.596;13.320;2023-06-19T19:18:24;26.50;80.00
16867;DHT22;8550;52.596;13.320;2023-06-19T19:23:26;26.20;81.10
16867;DHT22;8550;52.596;13.320;2023-06-19T19:28:28;26.10;82.50
16867;DHT22;8550;52.596;13.320;2023-06-19T19:33:32;25.80;83.90
16867;DHT22;8550;52.596;13.320;2023-06-19T19:38:33;25.60;85.60
16867;DHT22;8550;52.596;13.320;2023-06-19T19:43:35;25.40;87.20
16867;DHT22;8550;52.596;13.320;2023-06-19T19:48:39;25.20;88.80
16867;DHT22;8550;52.596;13.320;2023-06-19T19:53:40;25.10;90.10
16867;DHT22;8550;52.596;13.320;2023-06-19T19:58:42;24.90;91.10
16867;DHT22;8550;52.596;13.320;2023-06-19T20:03:46;24.70;91.70
16867;DHT22;8550;52.596;13.320;2023-06-19T20:08:48;24.60;92.50
16867;DHT22;8550;52.596;13.320;2023-06-19T20:13:50;24.40;92.90
16867;DHT22;8550;52.596;13.320;2023-06-19T20:18:54;24.30;93.40
16867;DHT22;8550;52.596;13.320;2023-06-19T20:23:56;24.20;94.80
16867;DHT22;8550;52.596;13.320;2023-06-19T20:28:58;24.00;95.20
16867;DHT22;8550;52.596;13.320;2023-06-19T20:34:01;23.90;96.30
16867;DHT22;8550;52.596;13.320;2023-06-19T20:39:03;23.80;96.70
16867;DHT22;8550;52.596;13.320;2023-06-19T20:44:07;23.70;97.40
16867;DHT22;8550;52.596;13.320;2023-06-19T20:49:10;23.60;98.70
16867;DHT22;8550;52.596;13.320;2023-06-19T20:54:12;23.50;99.80
16867;DHT22;8550;52.596;13.320;2023-06-19T20:59:14;23.40;99.90
16867;DHT22;8550;52.596;13.320;2023-06-19T21:04:17;23.20;99.90
16867;DHT22;8550;52.596;13.320;2023-06-19T21:09:19;23.10;99.90
16867;DHT22;8550;52.596;13.320;2023-06-19T21:14:22;22.70;99.90
16867;DHT22;8550;52.596;13.320;2023-06-19T21:19:25;22.30;99.90
16867;DHT22;8550;52.596;13.320;2023-06-19T21:24:27;22.00;99.90
16867;DHT22;8550;52.596;13.320;2023-06-19T21:29:29;21.90;99.90
16867;DHT22;8550;52.596;13.320;2023-06-19T21:34:33;21.90;99.90
16867;DHT22;8550;52.596;13.320;2023-06-19T21:39:35;21.70;99.90
16867;DHT22;8550;52.596;13.320;2023-06-19T21:44:36;21.50;99.90
16867;DHT22;8550;52.596;13.320;2023-06-19T21:49:40;21.50;99.90
16867;DHT22;8550;52.596;13.320;2023-06-19T21:54:42;21.50;99.90
16867;DHT22;8550;52.596;13.320;2023-06-19T21:59:44;21.30;99.90
16867;DHT22;8550;52.596;13.320;2023-06-19T22:04:47;21.30;99.90
16867;DHT22;8550;52.596;13.320;2023-06-19T22:09:49;21.10;99.90
16867;DHT22;8550;52.596;13.320;2023-06-19T22:14:51;21.00;99.90
16867;DHT22;8550;52.596;13.320;2023-06-19T22:19:54;20.90;99.90
16867;DHT22;8550;52.596;13.320;2023-06-19T22:24:56;20.90;99.90
16867;DHT22;8550;52.596;13.320;2023-06-19T22:29:58;20.80;99.90
16867;DHT22;8550;52.596;13.320;2023-06-19T22:35:01;20.70;99.90
16867;DHT22;8550;52.596;13.320;2023-06-19T22:40:04;20.60;99.90
16867;DHT22;8550;52.596;13.320;2023-06-19T22:45:08;20.50;99.90
16867;DHT22;8550;52.596;13.320;2023-06-19T22:50:12;20.40;99.90
16867;DHT22;8550;52.596;13.320;2023-06-19T22:55:14;20.40;99.90
16867;DHT22;8550;52.596;13.320;2023-06-19T23:00:16;20.30;99.90
16867;DHT22;8550;52.596;13.320;2023-06-19T23:05:19;20.20;99.90
16867;DHT22;8550;52.596;13.320;2023-06-19T23:10:21;20.20;99.90
16867;DHT22;8550;52.596;13.320;2023-06-19T23:15:23;20.20;99.90
16867;DHT22;8550;52.596;13.320;2023-06-19T23:20:26;20.10;99.90
16867;DHT22;8550;52.596;13.320;2023-06-19T23:25:29;20.00;99.90
16867;DHT22;8550;52.596;13.320;2023-06-19T23:30:32;19.80;99.90
16867;DHT22;8550;52.596;13.320;2023-06-19T23:35:35;19.60;99.90
16867;DHT22;8550;52.596;13.320;2023-06-19T23:40:37;19.60;99.90
16867;DHT22;8550;52.596;13.320;2023-06-19T23:45:41;19.50;99.90
16867;DHT22;8550;52.596;13.320;2023-06-19T23:50:44;19.50;99.90
16867;DHT22;8550;52.596;13.320;2023-06-19T23:55:46;19.30;99.90
